createdAt,value
2023-03-17T00:04:49.428Z,99384.54
2023-03-17T00:15:17.898Z,99385.71
2023-03-17T00:25:45.376Z,99390.53
2023-03-17T00:36:16.892Z,99392.17
2023-03-17T00:46:43.301Z,99401.44
2023-03-17T00:57:12.804Z,99408.09
2023-03-17T01:07:39.066Z,99401.14
2023-03-17T01:18:04.988Z,99386.05
2023-03-17T01:28:30.932Z,99378.24
2023-03-17T01:38:57.387Z,99382.75
2023-03-17T01:49:27.052Z,99378.55
2023-03-17T02:00:01.798Z,99380.25
2023-03-17T02:10:30.280Z,99368.91
2023-03-17T02:21:14.440Z,99357.27
2023-03-17T02:31:40.034Z,99337.48
2023-03-17T02:42:06.679Z,99325.26
2023-03-17T02:52:33.108Z,99314.39
2023-03-17T03:02:59.192Z,99291.48
2023-03-17T03:13:24.958Z,99303.91
2023-03-17T03:23:51.200Z,99315.45
2023-03-17T03:34:17.426Z,99309.07
2023-03-17T03:44:43.081Z,99315.99
2023-03-17T03:55:09.730Z,99331.77
2023-03-17T04:05:35.068Z,99338.38
2023-03-17T04:16:01.514Z,99327.59
2023-03-17T04:26:27.383Z,99322.35
2023-03-17T04:36:53.293Z,99313.16
2023-03-17T04:47:19.036Z,99322.08
2023-03-17T04:57:45.968Z,99317.80
2023-03-17T05:08:12.136Z,99325.86
2023-03-17T05:18:38.532Z,99331.08
2023-03-17T05:29:04.805Z,99330.31
2023-03-17T05:39:30.983Z,99334.27
2023-03-17T05:49:57.075Z,99337.02
2023-03-17T06:00:23.847Z,99335.52
2023-03-17T06:10:49.798Z,99343.77
2023-03-17T06:21:15.857Z,99341.25
2023-03-17T06:31:42.350Z,99338.38
2023-03-17T06:42:08.970Z,99330.39
2023-03-17T06:52:34.750Z,99333.05
2023-03-17T07:03:00.465Z,99327.17
2023-03-17T07:13:27.417Z,99334.29
2023-03-17T07:23:53.737Z,99343.92
2023-03-17T07:34:20.125Z,99339.87
2023-03-17T07:44:46.106Z,99334.61
2023-03-17T07:55:12.813Z,99341.98
2023-03-17T08:05:38.807Z,99337.66
2023-03-17T08:16:08.720Z,99327.27
2023-03-17T08:26:34.361Z,99316.17
2023-03-17T08:37:00.928Z,99306.58
2023-03-17T08:47:26.753Z,99294.14
2023-03-17T08:57:53.169Z,99285.21
2023-03-17T09:08:19.074Z,99278.21
2023-03-17T09:18:46.140Z,99272.09
2023-03-17T09:29:11.577Z,99268.94
2023-03-17T09:39:37.288Z,99260.36
2023-03-17T09:50:06.110Z,99246.52
2023-03-17T10:00:32.840Z,99227.74
2023-03-17T10:11:05.320Z,99223.61
2023-03-17T10:21:34.152Z,99209.48
2023-03-17T10:32:00.219Z,99208.52
2023-03-17T10:42:29.271Z,99205.06
2023-03-17T10:52:59.242Z,99206.48
2023-03-17T11:03:27.675Z,99192.33
2023-03-17T11:14:02.245Z,99150.91
2023-03-17T11:24:33.779Z,99147.83
2023-03-17T11:35:20.712Z,99141.09
2023-03-17T11:45:52.007Z,99142.34
2023-03-17T11:56:21.693Z,99135.41
2023-03-17T12:06:52.069Z,99124.63
2023-03-17T12:17:25.171Z,99111.61
2023-03-17T12:28:01.416Z,99099.80
2023-03-17T12:38:35.796Z,99092.83
2023-03-17T12:49:18.610Z,99071.27
2023-03-17T12:59:48.497Z,99062.41
2023-03-17T13:10:20.310Z,99053.00
2023-03-17T13:20:53.396Z,99038.37
2023-03-17T13:31:35.576Z,99027.10
2023-03-17T13:42:20.999Z,99024.50
2023-03-17T13:52:51.706Z,99019.06
2023-03-17T14:03:21.725Z,98999.26
2023-03-17T14:13:55.307Z,98985.02
2023-03-17T14:24:24.640Z,98967.96
2023-03-17T14:34:55.648Z,98948.98
2023-03-17T14:45:28.711Z,98948.64
2023-03-17T14:55:55.519Z,98940.45
2023-03-17T15:06:28.353Z,98929.67
2023-03-17T15:16:56.203Z,98907.94
2023-03-17T15:27:22.156Z,98895.20
2023-03-17T15:37:49.028Z,98905.18
2023-03-17T15:48:21.943Z,98902.63
2023-03-17T15:58:48.185Z,98906.65
2023-03-17T16:09:18.381Z,98911.54
2023-03-17T16:19:44.807Z,98909.27
2023-03-17T16:30:21.759Z,98904.01
2023-03-17T16:40:49.639Z,98896.54
2023-03-17T16:51:15.649Z,98894.99
2023-03-17T17:01:41.249Z,98897.39
2023-03-17T17:12:08.159Z,98903.02
2023-03-17T17:22:33.908Z,98912.48
2023-03-17T17:33:01.560Z,98923.34
2023-03-17T17:43:28.364Z,98916.98
2023-03-17T17:53:53.758Z,98920.85
2023-03-17T18:04:19.896Z,98928.50
2023-03-17T18:14:45.486Z,98931.24
2023-03-17T18:25:13.332Z,98932.21
2023-03-17T18:35:39.167Z,98922.77
2023-03-17T18:46:05.640Z,98923.36
2023-03-17T18:56:31.390Z,98933.38
2023-03-17T19:06:57.172Z,98925.57
2023-03-17T19:17:22.934Z,98904.81
2023-03-17T19:27:48.597Z,98896.27
2023-03-17T19:38:14.917Z,98894.17
2023-03-17T19:48:40.783Z,98894.58
2023-03-17T19:59:06.622Z,98891.70
2023-03-17T20:09:32.706Z,98883.43
2023-03-17T20:19:58.642Z,98879.84
2023-03-17T20:30:24.748Z,98881.77
2023-03-17T20:40:50.242Z,98882.43
2023-03-17T20:51:17.314Z,98876.05
2023-03-17T21:01:43.717Z,98876.98
2023-03-17T21:12:13.020Z,98874.36
2023-03-17T21:22:40.113Z,98878.11
2023-03-17T21:33:06.108Z,98878.94
2023-03-17T21:43:31.926Z,98890.23
2023-03-17T21:53:57.801Z,98891.30
2023-03-17T22:04:23.397Z,98883.61
2023-03-17T22:14:49.454Z,98886.46
2023-03-17T22:25:14.979Z,98894.23
2023-03-17T22:35:40.960Z,98888.81
2023-03-17T22:46:07.126Z,98886.40
2023-03-17T22:56:32.852Z,98885.60
2023-03-17T23:06:59.177Z,98877.65
2023-03-17T23:17:24.692Z,98875.31
2023-03-17T23:27:51.143Z,98871.73
2023-03-17T23:38:17.347Z,98868.56
2023-03-17T23:48:44.638Z,98864.48
2023-03-17T23:59:10.911Z,98867.50
